(°F)
68°
69°
70°
70°
70°
69°
68°
(°F)
68°
70°
70°
69°
68°
66°
65°
W
W
W
W
W
W
W
(mph)
6-11
7-13
8-14
8-14
8-14
7-13
6-11
(in)
0
0
0
0
0
0
0
(%)
2
1
1
1
0
0
0

Sun elevation

/ 76.9°
sun-icon
UV 8
05:46
19:43
Waxing crescent moon (75°)
11:24
00:58

METAR for San Diego (KSAN)

Time Conditions Temperature/
Dewpoint
Wind Visibility Weather Clouds Pressure Change Raw
VFR 66.92°F / 53.96°F 280º 8kt >10km - Scattered Clouds 2200ft 1015 - KSAN 181851Z 28008KT 10SM SCT022 BKN032 19/12 A3000 RMK AO2 SLP157 T01940122
VFR 66.2°F / 55.4°F 310º 6kt >10km - Scattered Clouds 2200ft - KSAN 181847Z 31006KT 10SM SCT022 BKN032 19/13 A3000 RMK AO2
MVFR 64.94°F / 53.96°F 290º 7kt >10km - Broken Clouds 1800ft 1016 - KSAN 181751Z 29007KT 10SM BKN018 BKN032 18/12 A3001 RMK AO2 SLP163 T01830122 10183 20167 58005
MVFR 64.04°F / 53.96°F 310º 7kt >10km - Broken Clouds 1500ft 1016 - KSAN 181651Z 31007KT 10SM BKN015 OVC021 18/12 A3002 RMK AO2 SLP166 T01780122
MVFR 62.96°F / 53.96°F 290º 7kt >10km - Overcast 1600ft 1017 - KSAN 181551Z 29007KT 10SM OVC016 17/12 A3003 RMK AO2 SLP170 T01720122
MVFR 62.96°F / 53.96°F 320º 4kt >10km - Overcast 1500ft 1016 - KSAN 181451Z 32004KT 10SM OVC015 17/12 A3003 RMK AO2 SLP168 T01720122 50000
MVFR 62.06°F / 53.06°F variable 3kt >10km - Overcast 1500ft 1016 - KSAN 181351Z VRB03KT 10SM OVC015 17/12 A3003 RMK AO2 SLP168 T01670117
MVFR 62.06°F / 53.06°F 260º 5kt >10km - Overcast 1500ft - KSAN 181339Z 26005KT 10SM OVC015 17/12 A3003 RMK AO2 T01670117
MVFR 62.06°F / 53.06°F 270º 7kt >10km - Overcast 1400ft 1016 - KSAN 181251Z 27007KT 10SM OVC014 17/12 A3003 RMK AO2 SLP169 T01670117
MVFR 62.06°F / 53.96°F 280º 4kt >10km - Overcast 1600ft 1016 - KSAN 181151Z 28004KT 10SM OVC016 17/12 A3003 RMK AO2 SLP168 70002 T01670122 10172 20167 58005
MVFR 62.06°F / 53.06°F 280º 4kt >10km - Broken Clouds 1700ft 1016 - KSAN 181051Z 28004KT 10SM BKN017 OVC029 17/12 A3003 RMK AO2 SLP168 T01670117
MVFR 62.96°F / 53.06°F 260º 5kt >10km - Overcast 1600ft 1017 - KSAN 180951Z 26005KT 10SM OVC016 17/12 A3005 RMK AO2 SLP174 T01720117
MVFR 62.06°F / 53.06°F 320º 3kt >10km - Overcast 1600ft 1017 - KSAN 180851Z 32003KT 10SM OVC016 17/12 A3004 RMK AO2 SLP173 T01670117 58008
MVFR 62.96°F / 53.06°F 290º 4kt >10km - Overcast 1600ft 1018 - KSAN 180751Z 29004KT 10SM OVC016 17/12 A3007 RMK AO2 SLP181 T01720117 402000156
MVFR 62.96°F / 53.06°F 290º 8kt >10km - Broken Clouds 1500ft 1018 - KSAN 180651Z 29008KT 10SM BKN015 OVC029 17/12 A3008 RMK AO2 SLP184 T01720117
MVFR 62.96°F / 53.06°F 290º 7kt >10km - Broken Clouds 1400ft - KSAN 180624Z 29007KT 10SM BKN014 OVC029 17/12 A3007 RMK AO2 T01720117
MVFR 62.96°F / 53.06°F 280º 7kt >10km - Scattered Clouds 1700ft 1018 - KSAN 180551Z 28007KT 10SM SCT017 OVC029 17/12 A3007 RMK AO2 SLP181 T01720117 10183 20172 51010
MVFR 62.96°F / 53.96°F 320º 4kt >10km - Scattered Clouds 1700ft 1017 - KSAN 180451Z 32004KT 10SM SCT017 OVC026 17/12 A3006 RMK AO2 SLP178 T01720122
MVFR 64.04°F / 53.96°F 300º 5kt >10km - Scattered Clouds 1700ft 1017 - KSAN 180351Z 30005KT 10SM SCT017 OVC025 18/12 A3005 RMK AO2 SLP175 T01780122
MVFR 64.04°F / 53.96°F 320º 7kt >10km - Scattered Clouds 1700ft 1017 - KSAN 180251Z 32007KT 10SM SCT017 BKN024 18/12 A3004 RMK AO2 SLP171 T01780122 55000
MVFR 64.04°F / 53.06°F 300º 7kt >10km - Scattered Clouds 1800ft 1016 - KSAN 180151Z 30007KT 10SM SCT018 BKN023 18/12 A3003 RMK AO2 SLP169 T01780117
MVFR 64.94°F / 53.96°F 290º 11kt >10km - Broken Clouds 1700ft 1017 - KSAN 180051Z 29011KT 10SM BKN017 BKN025 18/12 A3003 RMK AO2 SLP170 T01830122
MVFR 64.94°F / 53.96°F 290º 13kt Gust 18kt >10km - Broken Clouds 1700ft 1017 - KSAN 172351Z 29013G18KT 10SM BKN017 BKN025 18/12 A3004 RMK AO2 SLP171 T01830122 10200 20167 55006
MVFR 66.02°F / 53.96°F 300º 10kt Gust 19kt >10km - Scattered Clouds 1800ft 1017 - KSAN 172251Z 30010G19KT 10SM SCT018 BKN025 19/12 A3003 RMK AO2 SLP170 T01890122

VFR

66.92°F / 53.96°F

[More]
Wind 280º 8kt
Visibility >10km
Weather -
Clouds Scattered Clouds 2200ft
Pressure 1015
Change -
Raw KSAN 181851Z 28008KT 10SM SCT022 BKN032 19/12 A3000 RMK AO2 SLP157 T01940122

VFR

66.2°F / 55.4°F

[More]
Wind 310º 6kt
Visibility >10km
Weather -
Clouds Scattered Clouds 2200ft
Pressure
Change -
Raw KSAN 181847Z 31006KT 10SM SCT022 BKN032 19/13 A3000 RMK AO2

MVFR

64.94°F / 53.96°F

[More]
Wind 290º 7kt
Visibility >10km
Weather -
Clouds Broken Clouds 1800ft
Pressure 1016
Change -
Raw KSAN 181751Z 29007KT 10SM BKN018 BKN032 18/12 A3001 RMK AO2 SLP163 T01830122 10183 20167 58005

MVFR

64.04°F / 53.96°F

[More]
Wind 310º 7kt
Visibility >10km
Weather -
Clouds Broken Clouds 1500ft
Pressure 1016
Change -
Raw KSAN 181651Z 31007KT 10SM BKN015 OVC021 18/12 A3002 RMK AO2 SLP166 T01780122

MVFR

62.96°F / 53.96°F

[More]
Wind 290º 7kt
Visibility >10km
Weather -
Clouds Overcast 1600ft
Pressure 1017
Change -
Raw KSAN 181551Z 29007KT 10SM OVC016 17/12 A3003 RMK AO2 SLP170 T01720122

MVFR

62.96°F / 53.96°F

[More]
Wind 320º 4kt
Visibility >10km
Weather -
Clouds Overcast 1500ft
Pressure 1016
Change -
Raw KSAN 181451Z 32004KT 10SM OVC015 17/12 A3003 RMK AO2 SLP168 T01720122 50000

MVFR

62.06°F / 53.06°F

[More]
Wind variable 3kt
Visibility >10km
Weather -
Clouds Overcast 1500ft
Pressure 1016
Change -
Raw KSAN 181351Z VRB03KT 10SM OVC015 17/12 A3003 RMK AO2 SLP168 T01670117

MVFR

62.06°F / 53.06°F

[More]
Wind 260º 5kt
Visibility >10km
Weather -
Clouds Overcast 1500ft
Pressure
Change -
Raw KSAN 181339Z 26005KT 10SM OVC015 17/12 A3003 RMK AO2 T01670117

MVFR

62.06°F / 53.06°F

[More]
Wind 270º 7kt
Visibility >10km
Weather -
Clouds Overcast 1400ft
Pressure 1016
Change -
Raw KSAN 181251Z 27007KT 10SM OVC014 17/12 A3003 RMK AO2 SLP169 T01670117

MVFR

62.06°F / 53.96°F

[More]
Wind 280º 4kt
Visibility >10km
Weather -
Clouds Overcast 1600ft
Pressure 1016
Change -
Raw KSAN 181151Z 28004KT 10SM OVC016 17/12 A3003 RMK AO2 SLP168 70002 T01670122 10172 20167 58005

MVFR

62.06°F / 53.06°F

[More]
Wind 280º 4kt
Visibility >10km
Weather -
Clouds Broken Clouds 1700ft
Pressure 1016
Change -
Raw KSAN 181051Z 28004KT 10SM BKN017 OVC029 17/12 A3003 RMK AO2 SLP168 T01670117

MVFR

62.96°F / 53.06°F

[More]
Wind 260º 5kt
Visibility >10km
Weather -
Clouds Overcast 1600ft
Pressure 1017
Change -
Raw KSAN 180951Z 26005KT 10SM OVC016 17/12 A3005 RMK AO2 SLP174 T01720117

MVFR

62.06°F / 53.06°F

[More]
Wind 320º 3kt
Visibility >10km
Weather -
Clouds Overcast 1600ft
Pressure 1017
Change -
Raw KSAN 180851Z 32003KT 10SM OVC016 17/12 A3004 RMK AO2 SLP173 T01670117 58008

MVFR

62.96°F / 53.06°F

[More]
Wind 290º 4kt
Visibility >10km
Weather -
Clouds Overcast 1600ft
Pressure 1018
Change -
Raw KSAN 180751Z 29004KT 10SM OVC016 17/12 A3007 RMK AO2 SLP181 T01720117 402000156

MVFR

62.96°F / 53.06°F

[More]
Wind 290º 8kt
Visibility >10km
Weather -
Clouds Broken Clouds 1500ft
Pressure 1018
Change -
Raw KSAN 180651Z 29008KT 10SM BKN015 OVC029 17/12 A3008 RMK AO2 SLP184 T01720117

MVFR

62.96°F / 53.06°F

[More]
Wind 290º 7kt
Visibility >10km
Weather -
Clouds Broken Clouds 1400ft
Pressure
Change -
Raw KSAN 180624Z 29007KT 10SM BKN014 OVC029 17/12 A3007 RMK AO2 T01720117

MVFR

62.96°F / 53.06°F

[More]
Wind 280º 7kt
Visibility >10km
Weather -
Clouds Scattered Clouds 1700ft
Pressure 1018
Change -
Raw KSAN 180551Z 28007KT 10SM SCT017 OVC029 17/12 A3007 RMK AO2 SLP181 T01720117 10183 20172 51010

MVFR

62.96°F / 53.96°F

[More]
Wind 320º 4kt
Visibility >10km
Weather -
Clouds Scattered Clouds 1700ft
Pressure 1017
Change -
Raw KSAN 180451Z 32004KT 10SM SCT017 OVC026 17/12 A3006 RMK AO2 SLP178 T01720122

MVFR

64.04°F / 53.96°F

[More]
Wind 300º 5kt
Visibility >10km
Weather -
Clouds Scattered Clouds 1700ft
Pressure 1017
Change -
Raw KSAN 180351Z 30005KT 10SM SCT017 OVC025 18/12 A3005 RMK AO2 SLP175 T01780122

MVFR

64.04°F / 53.96°F

[More]
Wind 320º 7kt
Visibility >10km
Weather -
Clouds Scattered Clouds 1700ft
Pressure 1017
Change -
Raw KSAN 180251Z 32007KT 10SM SCT017 BKN024 18/12 A3004 RMK AO2 SLP171 T01780122 55000

MVFR

64.04°F / 53.06°F

[More]
Wind 300º 7kt
Visibility >10km
Weather -
Clouds Scattered Clouds 1800ft
Pressure 1016
Change -
Raw KSAN 180151Z 30007KT 10SM SCT018 BKN023 18/12 A3003 RMK AO2 SLP169 T01780117

MVFR

64.94°F / 53.96°F

[More]
Wind 290º 11kt
Visibility >10km
Weather -
Clouds Broken Clouds 1700ft
Pressure 1017
Change -
Raw KSAN 180051Z 29011KT 10SM BKN017 BKN025 18/12 A3003 RMK AO2 SLP170 T01830122

MVFR

64.94°F / 53.96°F

[More]
Wind 290º 13kt Gust 18kt
Visibility >10km
Weather -
Clouds Broken Clouds 1700ft
Pressure 1017
Change -
Raw KSAN 172351Z 29013G18KT 10SM BKN017 BKN025 18/12 A3004 RMK AO2 SLP171 T01830122 10200 20167 55006

MVFR

66.02°F / 53.96°F

[More]
Wind 300º 10kt Gust 19kt
Visibility >10km
Weather -
Clouds Scattered Clouds 1800ft
Pressure 1017
Change -
Raw KSAN 172251Z 30010G19KT 10SM SCT018 BKN025 19/12 A3003 RMK AO2 SLP170 T01890122

TAF for San Diego (KSAN)

From till


From till Wind 270º 9kt. Visibility 10km or more. Scattered Clouds 2000ft. Broken Clouds 3000ft.
From till Wind 210º 7kt. Visibility 10km or more. Broken Clouds 1500ft.
From till Wind 180º 9kt. Visibility 10km or more. Overcast 1500ft.
From till Wind 220º 8kt. Visibility 10km or more. Scattered Clouds 2000ft.

Raw: KSAN 181900Z 1819/1924 27009KT P6SM SCT020 BKN030 FM190200 21007KT P6SM BKN015 FM190600 18009KT P6SM OVC015 FM191900 22008KT P6SM SCT020

Current satellite images for San Diego, United States of America

The location marker is placed on San Diego. [More]

The real-time satellite image combines visible light during daytime with infrared radiation during nighttime. At night, the image is not dark as infrared radiation can detect temperature differences. Unfortunately, low clouds and fog are difficult to distinguish from ground temperatures and thus can be almost invisible during the night. Meteosat satellite images for Europe are updated in real-time every 5 minutes. GOES-16/GOES-17 (North & South America) and Himawari (Asia) images update every 10 minutes.

Radar and precipitation nowcast for San Diego

The location marker is placed on San Diego. This animation shows the precipitation radar for the last hour, as well as a 1h forecast. Drizzle or light snow fall might be invisible for the radar. Precipitation intensity is colour coded, ranging from light blue to heavy purple.